sensor_id;sensor_type;location;lat;lon;timestamp;temperature;humidity
24260;DHT22;12384;48.112;18.418;2022-12-11T00:01:15;3.50;99.90
24260;DHT22;12384;48.112;18.418;2022-12-11T00:03:45;3.50;99.90
24260;DHT22;12384;48.112;18.418;2022-12-11T00:06:14;3.50;99.90
24260;DHT22;12384;48.112;18.418;2022-12-11T00:08:44;3.50;99.90
24260;DHT22;12384;48.112;18.418;2022-12-11T00:11:14;3.50;99.90
24260;DHT22;12384;48.112;18.418;2022-12-11T00:13:43;3.50;99.90
24260;DHT22;12384;48.112;18.418;2022-12-11T00:16:13;3.50;99.90
24260;DHT22;12384;48.112;18.418;2022-12-11T00:18:42;3.50;99.90
24260;DHT22;12384;48.112;18.418;2022-12-11T00:21:13;3.50;99.90
24260;DHT22;12384;48.112;18.418;2022-12-11T00:23:42;3.50;99.90
24260;DHT22;12384;48.112;18.418;2022-12-11T00:26:13;3.40;99.90
24260;DHT22;12384;48.112;18.418;2022-12-11T00:28:43;3.40;99.90
24260;DHT22;12384;48.112;18.418;2022-12-11T00:31:15;3.40;99.90
24260;DHT22;12384;48.112;18.418;2022-12-11T00:33:44;3.40;99.90
24260;DHT22;12384;48.112;18.418;2022-12-11T00:36:17;3.40;99.90
24260;DHT22;12384;48.112;18.418;2022-12-11T00:38:46;3.40;99.90
24260;DHT22;12384;48.112;18.418;2022-12-11T00:41:17;3.40;99.90
24260;DHT22;12384;48.112;18.418;2022-12-11T00:43:46;3.40;99.90
24260;DHT22;12384;48.112;18.418;2022-12-11T00:46:16;3.40;99.90
24260;DHT22;12384;48.112;18.418;2022-12-11T00:48:45;3.40;99.90
24260;DHT22;12384;48.112;18.418;2022-12-11T00:51:16;3.40;99.90
24260;DHT22;12384;48.112;18.418;2022-12-11T00:53:44;3.30;99.90
24260;DHT22;12384;48.112;18.418;2022-12-11T00:56:15;3.40;99.90
24260;DHT22;12384;48.112;18.418;2022-12-11T00:58:44;3.30;99.90
24260;DHT22;12384;48.112;18.418;2022-12-11T01:01:14;3.30;99.90
24260;DHT22;12384;48.112;18.418;2022-12-11T01:03:45;3.30;99.90
24260;DHT22;12384;48.112;18.418;2022-12-11T01:06:15;3.30;99.90
24260;DHT22;12384;48.112;18.418;2022-12-11T01:08:44;3.30;99.90
24260;DHT22;12384;48.112;18.418;2022-12-11T01:11:14;3.30;99.90
24260;DHT22;12384;48.112;18.418;2022-12-11T01:13:42;3.30;99.90
24260;DHT22;12384;48.112;18.418;2022-12-11T01:16:12;3.20;99.90
24260;DHT22;12384;48.112;18.418;2022-12-11T01:18:42;3.20;99.90
24260;DHT22;12384;48.112;18.418;2022-12-11T01:21:12;3.20;99.90
24260;DHT22;12384;48.112;18.418;2022-12-11T01:23:41;3.20;99.90
24260;DHT22;12384;48.112;18.418;2022-12-11T01:26:11;3.20;99.90
24260;DHT22;12384;48.112;18.418;2022-12-11T01:28:40;3.20;99.90
24260;DHT22;12384;48.112;18.418;2022-12-11T01:31:09;3.20;99.90
24260;DHT22;12384;48.112;18.418;2022-12-11T01:33:39;3.10;99.90
24260;DHT22;12384;48.112;18.418;2022-12-11T01:36:09;3.10;99.90
24260;DHT22;12384;48.112;18.418;2022-12-11T01:38:39;3.10;99.90
24260;DHT22;12384;48.112;18.418;2022-12-11T01:41:08;3.10;99.90
24260;DHT22;12384;48.112;18.418;2022-12-11T01:43:56;3.10;99.90
24260;DHT22;12384;48.112;18.418;2022-12-11T01:46:24;3.10;99.90
24260;DHT22;12384;48.112;18.418;2022-12-11T01:48:54;3.10;99.90
24260;DHT22;12384;48.112;18.418;2022-12-11T01:51:23;3.10;99.90
24260;DHT22;12384;48.112;18.418;2022-12-11T01:53:56;3.10;99.90
24260;DHT22;12384;48.112;18.418;2022-12-11T01:56:26;3.10;99.90
24260;DHT22;12384;48.112;18.418;2022-12-11T01:59:01;3.10;99.90
24260;DHT22;12384;48.112;18.418;2022-12-11T02:01:35;3.00;99.90
24260;DHT22;12384;48.112;18.418;2022-12-11T02:04:06;3.00;99.90
24260;DHT22;12384;48.112;18.418;2022-12-11T02:06:37;3.00;99.90
24260;DHT22;12384;48.112;18.418;2022-12-11T02:09:10;3.00;99.90
24260;DHT22;12384;48.112;18.418;2022-12-11T02:11:46;3.00;99.90
24260;DHT22;12384;48.112;18.418;2022-12-11T02:14:25;3.00;99.90
24260;DHT22;12384;48.112;18.418;2022-12-11T02:16:59;3.00;99.90
24260;DHT22;12384;48.112;18.418;2022-12-11T02:19:46;3.00;99.90
24260;DHT22;12384;48.112;18.418;2022-12-11T02:22:25;2.90;99.90
24260;DHT22;12384;48.112;18.418;2022-12-11T02:25:04;2.90;99.90
24260;DHT22;12384;48.112;18.418;2022-12-11T02:27:40;2.90;99.90
24260;DHT22;12384;48.112;18.418;2022-12-11T02:30:13;2.80;99.90
24260;DHT22;12384;48.112;18.418;2022-12-11T02:32:45;2.80;99.90
24260;DHT22;12384;48.112;18.418;2022-12-11T02:35:17;2.80;99.90
24260;DHT22;12384;48.112;18.418;2022-12-11T02:37:50;2.80;99.90
24260;DHT22;12384;48.112;18.418;2022-12-11T02:40:25;2.70;99.90
24260;DHT22;12384;48.112;18.418;2022-12-11T02:42:57;2.70;99.90
24260;DHT22;12384;48.112;18.418;2022-12-11T02:45:29;2.70;99.90
24260;DHT22;12384;48.112;18.418;2022-12-11T02:48:00;2.60;99.90
24260;DHT22;12384;48.112;18.418;2022-12-11T02:50:31;2.60;99.90
24260;DHT22;12384;48.112;18.418;2022-12-11T02:53:02;2.60;99.90
24260;DHT22;12384;48.112;18.418;2022-12-11T02:55:33;2.60;99.90
24260;DHT22;12384;48.112;18.418;2022-12-11T02:58:07;2.50;99.90
24260;DHT22;12384;48.112;18.418;2022-12-11T03:00:38;2.50;99.90
24260;DHT22;12384;48.112;18.418;2022-12-11T03:03:07;2.50;99.90
24260;DHT22;12384;48.112;18.418;2022-12-11T03:05:35;2.40;99.90
24260;DHT22;12384;48.112;18.418;2022-12-11T03:08:04;2.40;99.90
24260;DHT22;12384;48.112;18.418;2022-12-11T03:10:33;2.40;99.90
24260;DHT22;12384;48.112;18.418;2022-12-11T03:13:02;2.40;99.90
24260;DHT22;12384;48.112;18.418;2022-12-11T03:15:37;2.40;99.90
24260;DHT22;12384;48.112;18.418;2022-12-11T03:18:16;2.40;99.90
24260;DHT22;12384;48.112;18.418;2022-12-11T03:20:53;2.40;99.90
24260;DHT22;12384;48.112;18.418;2022-12-11T03:23:27;2.30;99.90
24260;DHT22;12384;48.112;18.418;2022-12-11T03:26:01;2.30;99.90
24260;DHT22;12384;48.112;18.418;2022-12-11T03:28:33;2.30;99.90
24260;DHT22;12384;48.112;18.418;2022-12-11T03:31:07;2.30;99.90
24260;DHT22;12384;48.112;18.418;2022-12-11T03:33:40;2.30;99.90
24260;DHT22;12384;48.112;18.418;2022-12-11T03:36:12;2.30;99.90
24260;DHT22;12384;48.112;18.418;2022-12-11T03:38:46;2.30;99.90
24260;DHT22;12384;48.112;18.418;2022-12-11T03:41:18;2.30;99.90
24260;DHT22;12384;48.112;18.418;2022-12-11T03:43:50;2.20;99.90
24260;DHT22;12384;48.112;18.418;2022-12-11T03:46:22;2.30;99.90
24260;DHT22;12384;48.112;18.418;2022-12-11T03:48:55;2.30;99.90
24260;DHT22;12384;48.112;18.418;2022-12-11T03:51:25;2.30;99.90
24260;DHT22;12384;48.112;18.418;2022-12-11T03:53:54;2.30;99.90
24260;DHT22;12384;48.112;18.418;2022-12-11T03:56:25;2.20;99.90
24260;DHT22;12384;48.112;18.418;2022-12-11T03:58:54;2.30;99.90
24260;DHT22;12384;48.112;18.418;2022-12-11T04:01:23;2.30;99.90
24260;DHT22;12384;48.112;18.418;2022-12-11T04:03:52;2.20;99.90
24260;DHT22;12384;48.112;18.418;2022-12-11T04:06:21;2.20;99.90
24260;DHT22;12384;48.112;18.418;2022-12-11T04:08:49;2.20;99.90
24260;DHT22;12384;48.112;18.418;2022-12-11T04:11:18;2.20;99.90
24260;DHT22;12384;48.112;18.418;2022-12-11T04:14:02;2.20;99.90
24260;DHT22;12384;48.112;18.418;2022-12-11T04:16:48;2.20;99.90
24260;DHT22;12384;48.112;18.418;2022-12-11T04:19:19;2.20;99.90
24260;DHT22;12384;48.112;18.418;2022-12-11T04:22:05;2.20;99.90
24260;DHT22;12384;48.112;18.418;2022-12-11T04:24:51;2.20;99.90
24260;DHT22;12384;48.112;18.418;2022-12-11T04:27:20;2.20;99.90
24260;DHT22;12384;48.112;18.418;2022-12-11T04:30:09;2.20;99.90
24260;DHT22;12384;48.112;18.418;2022-12-11T04:32:38;2.20;99.90
24260;DHT22;12384;48.112;18.418;2022-12-11T04:35:09;2.20;99.90
24260;DHT22;12384;48.112;18.418;2022-12-11T04:37:39;2.20;99.90
24260;DHT22;12384;48.112;18.418;2022-12-11T04:40:11;2.20;99.90
24260;DHT22;12384;48.112;18.418;2022-12-11T04:42:40;2.20;99.90
24260;DHT22;12384;48.112;18.418;2022-12-11T04:45:10;2.20;99.90
24260;DHT22;12384;48.112;18.418;2022-12-11T04:47:39;2.20;99.90
24260;DHT22;12384;48.112;18.418;2022-12-11T04:50:11;2.20;99.90
24260;DHT22;12384;48.112;18.418;2022-12-11T04:52:40;2.20;99.90
24260;DHT22;12384;48.112;18.418;2022-12-11T04:55:10;2.20;99.90
24260;DHT22;12384;48.112;18.418;2022-12-11T04:57:39;2.20;99.90
24260;DHT22;12384;48.112;18.418;2022-12-11T05:00:09;2.20;99.90
24260;DHT22;12384;48.112;18.418;2022-12-11T05:02:39;2.20;99.90
24260;DHT22;12384;48.112;18.418;2022-12-11T05:05:10;2.20;99.90
24260;DHT22;12384;48.112;18.418;2022-12-11T05:07:39;2.20;99.90
24260;DHT22;12384;48.112;18.418;2022-12-11T05:10:09;2.20;99.90
24260;DHT22;12384;48.112;18.418;2022-12-11T05:12:37;2.20;99.90
24260;DHT22;12384;48.112;18.418;2022-12-11T05:15:06;2.20;99.90
24260;DHT22;12384;48.112;18.418;2022-12-11T05:17:36;2.20;99.90
24260;DHT22;12384;48.112;18.418;2022-12-11T05:20:06;2.20;99.90
24260;DHT22;12384;48.112;18.418;2022-12-11T05:22:36;2.20;99.90
24260;DHT22;12384;48.112;18.418;2022-12-11T05:25:05;2.20;99.90
24260;DHT22;12384;48.112;18.418;2022-12-11T05:27:35;2.20;99.90
24260;DHT22;12384;48.112;18.418;2022-12-11T05:30:05;2.20;99.90
24260;DHT22;12384;48.112;18.418;2022-12-11T05:32:33;2.20;99.90
24260;DHT22;12384;48.112;18.418;2022-12-11T05:35:02;2.20;99.90
24260;DHT22;12384;48.112;18.418;2022-12-11T05:37:32;2.20;99.90
24260;DHT22;12384;48.112;18.418;2022-12-11T05:40:03;2.20;99.90
24260;DHT22;12384;48.112;18.418;2022-12-11T05:42:32;2.20;99.90
24260;DHT22;12384;48.112;18.418;2022-12-11T05:45:01;2.20;99.90
24260;DHT22;12384;48.112;18.418;2022-12-11T05:47:30;2.20;99.90
24260;DHT22;12384;48.112;18.418;2022-12-11T05:49:58;2.20;99.90
24260;DHT22;12384;48.112;18.418;2022-12-11T05:52:27;2.20;99.90
24260;DHT22;12384;48.112;18.418;2022-12-11T05:54:56;2.30;99.90
24260;DHT22;12384;48.112;18.418;2022-12-11T05:57:25;2.30;99.90
24260;DHT22;12384;48.112;18.418;2022-12-11T05:59:54;2.30;99.90
24260;DHT22;12384;48.112;18.418;2022-12-11T06:02:22;2.30;99.90
24260;DHT22;12384;48.112;18.418;2022-12-11T06:04:51;2.30;99.90
24260;DHT22;12384;48.112;18.418;2022-12-11T06:07:21;2.30;99.90
24260;DHT22;12384;48.112;18.418;2022-12-11T06:09:50;2.30;99.90
24260;DHT22;12384;48.112;18.418;2022-12-11T06:12:18;2.30;99.90
24260;DHT22;12384;48.112;18.418;2022-12-11T06:14:48;2.30;99.90
24260;DHT22;12384;48.112;18.418;2022-12-11T06:17:17;2.30;99.90
24260;DHT22;12384;48.112;18.418;2022-12-11T06:19:45;2.30;99.90
24260;DHT22;12384;48.112;18.418;2022-12-11T06:22:13;2.30;99.90
24260;DHT22;12384;48.112;18.418;2022-12-11T06:24:42;2.30;99.90
24260;DHT22;12384;48.112;18.418;2022-12-11T06:27:10;2.30;99.90
24260;DHT22;12384;48.112;18.418;2022-12-11T06:29:39;2.30;99.90
24260;DHT22;12384;48.112;18.418;2022-12-11T06:32:09;2.30;99.90
24260;DHT22;12384;48.112;18.418;2022-12-11T06:34:37;2.30;99.90
24260;DHT22;12384;48.112;18.418;2022-12-11T06:37:06;2.30;99.90
24260;DHT22;12384;48.112;18.418;2022-12-11T06:39:34;2.30;99.90
24260;DHT22;12384;48.112;18.418;2022-12-11T06:42:03;2.30;99.90
24260;DHT22;12384;48.112;18.418;2022-12-11T06:44:31;2.30;99.90
24260;DHT22;12384;48.112;18.418;2022-12-11T06:47:00;2.30;99.90
24260;DHT22;12384;48.112;18.418;2022-12-11T06:49:29;2.30;99.90
24260;DHT22;12384;48.112;18.418;2022-12-11T06:51:58;2.30;99.90
24260;DHT22;12384;48.112;18.418;2022-12-11T06:54:27;2.30;99.90
24260;DHT22;12384;48.112;18.418;2022-12-11T06:56:55;2.20;99.90
24260;DHT22;12384;48.112;18.418;2022-12-11T06:59:24;2.20;99.90
24260;DHT22;12384;48.112;18.418;2022-12-11T07:01:52;2.20;99.90
24260;DHT22;12384;48.112;18.418;2022-12-11T07:04:21;2.30;99.90
24260;DHT22;12384;48.112;18.418;2022-12-11T07:06:52;2.20;99.90
24260;DHT22;12384;48.112;18.418;2022-12-11T07:09:20;2.20;99.90
24260;DHT22;12384;48.112;18.418;2022-12-11T07:11:50;2.20;99.90
24260;DHT22;12384;48.112;18.418;2022-12-11T07:14:19;2.20;99.90
24260;DHT22;12384;48.112;18.418;2022-12-11T07:16:48;2.20;99.90
24260;DHT22;12384;48.112;18.418;2022-12-11T07:19:16;2.20;99.90
24260;DHT22;12384;48.112;18.418;2022-12-11T07:21:45;2.20;99.90
24260;DHT22;12384;48.112;18.418;2022-12-11T07:24:15;2.20;99.90
24260;DHT22;12384;48.112;18.418;2022-12-11T07:26:43;2.20;99.90
24260;DHT22;12384;48.112;18.418;2022-12-11T07:29:12;2.20;99.90
24260;DHT22;12384;48.112;18.418;2022-12-11T07:31:40;2.20;99.90
24260;DHT22;12384;48.112;18.418;2022-12-11T07:34:11;2.20;99.90
24260;DHT22;12384;48.112;18.418;2022-12-11T07:36:40;2.20;99.90
24260;DHT22;12384;48.112;18.418;2022-12-11T07:39:10;2.20;99.90
24260;DHT22;12384;48.112;18.418;2022-12-11T07:41:40;2.20;99.90
24260;DHT22;12384;48.112;18.418;2022-12-11T07:44:10;2.20;99.90
24260;DHT22;12384;48.112;18.418;2022-12-11T07:46:39;2.20;99.90
24260;DHT22;12384;48.112;18.418;2022-12-11T07:49:08;2.20;99.90
24260;DHT22;12384;48.112;18.418;2022-12-11T07:51:37;2.30;99.90
24260;DHT22;12384;48.112;18.418;2022-12-11T07:54:08;2.30;99.90
24260;DHT22;12384;48.112;18.418;2022-12-11T07:56:38;2.20;99.90
24260;DHT22;12384;48.112;18.418;2022-12-11T07:59:11;2.20;99.90
24260;DHT22;12384;48.112;18.418;2022-12-11T08:01:40;2.20;99.90
24260;DHT22;12384;48.112;18.418;2022-12-11T08:04:10;2.20;99.90
24260;DHT22;12384;48.112;18.418;2022-12-11T08:06:42;2.20;99.90
24260;DHT22;12384;48.112;18.418;2022-12-11T08:09:12;2.20;99.90
24260;DHT22;12384;48.112;18.418;2022-12-11T08:11:48;2.20;99.90
24260;DHT22;12384;48.112;18.418;2022-12-11T08:14:18;2.20;99.90
24260;DHT22;12384;48.112;18.418;2022-12-11T08:16:47;2.20;99.90
24260;DHT22;12384;48.112;18.418;2022-12-11T08:19:16;2.20;99.90
24260;DHT22;12384;48.112;18.418;2022-12-11T08:21:45;2.30;99.90
24260;DHT22;12384;48.112;18.418;2022-12-11T08:24:13;2.30;99.90
24260;DHT22;12384;48.112;18.418;2022-12-11T08:26:46;2.30;99.90
24260;DHT22;12384;48.112;18.418;2022-12-11T08:29:15;2.30;99.90
24260;DHT22;12384;48.112;18.418;2022-12-11T08:31:45;2.30;99.90
24260;DHT22;12384;48.112;18.418;2022-12-11T08:34:13;2.30;99.90
24260;DHT22;12384;48.112;18.418;2022-12-11T08:36:42;2.30;99.90
24260;DHT22;12384;48.112;18.418;2022-12-11T08:39:11;2.30;99.90
24260;DHT22;12384;48.112;18.418;2022-12-11T08:41:40;2.30;99.90
24260;DHT22;12384;48.112;18.418;2022-12-11T08:44:11;2.30;99.90
24260;DHT22;12384;48.112;18.418;2022-12-11T08:46:43;2.30;99.90
24260;DHT22;12384;48.112;18.418;2022-12-11T08:49:12;2.30;99.90
24260;DHT22;12384;48.112;18.418;2022-12-11T08:51:41;2.30;99.90
24260;DHT22;12384;48.112;18.418;2022-12-11T08:54:09;2.30;99.90
24260;DHT22;12384;48.112;18.418;2022-12-11T08:56:38;2.40;99.90
24260;DHT22;12384;48.112;18.418;2022-12-11T08:59:07;2.40;99.90
24260;DHT22;12384;48.112;18.418;2022-12-11T09:01:35;2.40;99.90
24260;DHT22;12384;48.112;18.418;2022-12-11T09:04:04;2.40;99.90
24260;DHT22;12384;48.112;18.418;2022-12-11T09:06:33;2.40;99.90
24260;DHT22;12384;48.112;18.418;2022-12-11T09:09:03;2.40;99.90
24260;DHT22;12384;48.112;18.418;2022-12-11T09:11:34;2.40;99.90
24260;DHT22;12384;48.112;18.418;2022-12-11T09:14:03;2.40;99.90
24260;DHT22;12384;48.112;18.418;2022-12-11T09:16:38;2.40;99.90
24260;DHT22;12384;48.112;18.418;2022-12-11T09:19:10;2.40;99.90
24260;DHT22;12384;48.112;18.418;2022-12-11T09:21:41;2.40;99.90
24260;DHT22;12384;48.112;18.418;2022-12-11T09:24:11;2.50;99.90
24260;DHT22;12384;48.112;18.418;2022-12-11T09:26:40;2.50;99.90
24260;DHT22;12384;48.112;18.418;2022-12-11T09:29:10;2.50;99.90
24260;DHT22;12384;48.112;18.418;2022-12-11T09:31:39;2.50;99.90
24260;DHT22;12384;48.112;18.418;2022-12-11T09:34:10;2.60;99.90
24260;DHT22;12384;48.112;18.418;2022-12-11T09:36:41;2.60;99.90
24260;DHT22;12384;48.112;18.418;2022-12-11T09:39:13;2.60;99.90
24260;DHT22;12384;48.112;18.418;2022-12-11T09:41:48;2.70;99.90
24260;DHT22;12384;48.112;18.418;2022-12-11T09:44:37;2.70;99.90
24260;DHT22;12384;48.112;18.418;2022-12-11T09:47:30;2.80;99.90
24260;DHT22;12384;48.112;18.418;2022-12-11T09:50:05;2.80;99.90
24260;DHT22;12384;48.112;18.418;2022-12-11T09:52:50;2.90;99.90
24260;DHT22;12384;48.112;18.418;2022-12-11T09:55:22;2.90;99.90
24260;DHT22;12384;48.112;18.418;2022-12-11T09:57:56;3.00;99.90
24260;DHT22;12384;48.112;18.418;2022-12-11T10:00:32;3.00;99.90
24260;DHT22;12384;48.112;18.418;2022-12-11T10:06:19;3.20;99.90
24260;DHT22;12384;48.112;18.418;2022-12-11T10:08:59;3.20;99.90
24260;DHT22;12384;48.112;18.418;2022-12-11T10:14:38;3.30;99.90
24260;DHT22;12384;48.112;18.418;2022-12-11T10:17:14;3.40;99.90
24260;DHT22;12384;48.112;18.418;2022-12-11T10:19:44;3.40;99.90
24260;DHT22;12384;48.112;18.418;2022-12-11T10:22:17;3.40;99.90
24260;DHT22;12384;48.112;18.418;2022-12-11T10:24:53;3.50;99.90
24260;DHT22;12384;48.112;18.418;2022-12-11T10:27:39;3.50;99.90
24260;DHT22;12384;48.112;18.418;2022-12-11T10:30:14;3.60;99.90
24260;DHT22;12384;48.112;18.418;2022-12-11T10:32:50;3.60;99.90
24260;DHT22;12384;48.112;18.418;2022-12-11T10:35:27;3.70;99.90
24260;DHT22;12384;48.112;18.418;2022-12-11T10:38:05;3.80;99.90
24260;DHT22;12384;48.112;18.418;2022-12-11T10:40:40;3.90;99.90
24260;DHT22;12384;48.112;18.418;2022-12-11T10:43:10;4.00;99.80
24260;DHT22;12384;48.112;18.418;2022-12-11T10:45:39;4.10;99.50
24260;DHT22;12384;48.112;18.418;2022-12-11T10:48:10;4.20;98.90
24260;DHT22;12384;48.112;18.418;2022-12-11T10:50:39;4.20;97.10
24260;DHT22;12384;48.112;18.418;2022-12-11T10:53:19;4.30;96.20
24260;DHT22;12384;48.112;18.418;2022-12-11T10:55:49;4.30;95.00
24260;DHT22;12384;48.112;18.418;2022-12-11T10:58:21;4.30;94.10
24260;DHT22;12384;48.112;18.418;2022-12-11T11:01:04;4.30;93.00
24260;DHT22;12384;48.112;18.418;2022-12-11T11:03:34;4.30;91.80
24260;DHT22;12384;48.112;18.418;2022-12-11T11:06:11;4.30;91.20
24260;DHT22;12384;48.112;18.418;2022-12-11T11:08:43;4.30;90.80
24260;DHT22;12384;48.112;18.418;2022-12-11T11:11:48;4.30;90.30
24260;DHT22;12384;48.112;18.418;2022-12-11T11:14:18;4.40;88.30
24260;DHT22;12384;48.112;18.418;2022-12-11T11:16:49;4.40;87.50
24260;DHT22;12384;48.112;18.418;2022-12-11T11:19:21;4.40;86.80
24260;DHT22;12384;48.112;18.418;2022-12-11T11:21:52;4.50;85.90
24260;DHT22;12384;48.112;18.418;2022-12-11T11:24:38;4.50;84.00
24260;DHT22;12384;48.112;18.418;2022-12-11T11:27:23;4.50;82.60
24260;DHT22;12384;48.112;18.418;2022-12-11T11:29:54;4.50;81.10
24260;DHT22;12384;48.112;18.418;2022-12-11T11:32:32;4.50;80.80
24260;DHT22;12384;48.112;18.418;2022-12-11T11:35:18;4.50;80.70
24260;DHT22;12384;48.112;18.418;2022-12-11T11:37:58;4.50;80.70
24260;DHT22;12384;48.112;18.418;2022-12-11T11:40:30;4.50;80.80
24260;DHT22;12384;48.112;18.418;2022-12-11T11:43:06;4.60;81.80
24260;DHT22;12384;48.112;18.418;2022-12-11T11:45:43;4.70;82.20
24260;DHT22;12384;48.112;18.418;2022-12-11T11:48:26;4.70;82.40
24260;DHT22;12384;48.112;18.418;2022-12-11T11:50:56;4.80;81.80
24260;DHT22;12384;48.112;18.418;2022-12-11T11:53:30;4.80;80.70
24260;DHT22;12384;48.112;18.418;2022-12-11T11:56:14;4.80;80.40
24260;DHT22;12384;48.112;18.418;2022-12-11T11:58:51;4.90;81.20
24260;DHT22;12384;48.112;18.418;2022-12-11T12:01:22;4.90;80.90
24260;DHT22;12384;48.112;18.418;2022-12-11T12:03:51;5.00;79.20
24260;DHT22;12384;48.112;18.418;2022-12-11T12:06:30;5.00;78.60
24260;DHT22;12384;48.112;18.418;2022-12-11T12:09:11;5.10;78.70
24260;DHT22;12384;48.112;18.418;2022-12-11T12:11:48;5.10;78.30
24260;DHT22;12384;48.112;18.418;2022-12-11T12:14:23;5.20;77.40
24260;DHT22;12384;48.112;18.418;2022-12-11T12:17:19;5.20;76.30
24260;DHT22;12384;48.112;18.418;2022-12-11T12:19:59;5.20;75.50
24260;DHT22;12384;48.112;18.418;2022-12-11T12:22:44;5.20;75.80
24260;DHT22;12384;48.112;18.418;2022-12-11T12:25:19;5.20;73.70
24260;DHT22;12384;48.112;18.418;2022-12-11T12:27:55;5.20;73.70
24260;DHT22;12384;48.112;18.418;2022-12-11T12:30:34;5.40;74.00
24260;DHT22;12384;48.112;18.418;2022-12-11T12:33:20;5.50;74.60
24260;DHT22;12384;48.112;18.418;2022-12-11T12:35:57;5.60;73.30
24260;DHT22;12384;48.112;18.418;2022-12-11T12:38:41;5.70;72.10
24260;DHT22;12384;48.112;18.418;2022-12-11T12:41:17;5.80;70.40
24260;DHT22;12384;48.112;18.418;2022-12-11T12:43:59;5.90;70.70
24260;DHT22;12384;48.112;18.418;2022-12-11T12:46:47;6.30;70.70
24260;DHT22;12384;48.112;18.418;2022-12-11T12:49:33;6.60;70.00
24260;DHT22;12384;48.112;18.418;2022-12-11T12:52:05;7.10;69.60
24260;DHT22;12384;48.112;18.418;2022-12-11T12:54:34;7.50;67.00
24260;DHT22;12384;48.112;18.418;2022-12-11T12:57:04;7.80;66.00
24260;DHT22;12384;48.112;18.418;2022-12-11T12:59:33;7.90;63.40
24260;DHT22;12384;48.112;18.418;2022-12-11T13:02:03;7.90;61.80
24260;DHT22;12384;48.112;18.418;2022-12-11T13:04:39;7.90;60.20
24260;DHT22;12384;48.112;18.418;2022-12-11T13:07:27;7.70;59.00
24260;DHT22;12384;48.112;18.418;2022-12-11T13:10:06;7.40;58.70
24260;DHT22;12384;48.112;18.418;2022-12-11T13:12:43;7.20;58.10
24260;DHT22;12384;48.112;18.418;2022-12-11T13:15:27;7.00;57.70
24260;DHT22;12384;48.112;18.418;2022-12-11T13:17:59;6.70;57.60
24260;DHT22;12384;48.112;18.418;2022-12-11T13:20:30;6.50;57.30
24260;DHT22;12384;48.112;18.418;2022-12-11T13:23:16;6.20;57.20
24260;DHT22;12384;48.112;18.418;2022-12-11T13:25:51;5.90;57.40
24260;DHT22;12384;48.112;18.418;2022-12-11T13:28:32;5.60;57.50
24260;DHT22;12384;48.112;18.418;2022-12-11T13:31:24;5.40;57.50
24260;DHT22;12384;48.112;18.418;2022-12-11T13:34:01;5.10;57.60
24260;DHT22;12384;48.112;18.418;2022-12-11T13:36:32;4.90;57.70
24260;DHT22;12384;48.112;18.418;2022-12-11T13:39:04;4.70;57.90
24260;DHT22;12384;48.112;18.418;2022-12-11T13:41:35;4.50;58.10
24260;DHT22;12384;48.112;18.418;2022-12-11T13:44:05;4.40;58.60
24260;DHT22;12384;48.112;18.418;2022-12-11T13:46:35;4.30;59.00
24260;DHT22;12384;48.112;18.418;2022-12-11T13:49:15;4.10;59.20
24260;DHT22;12384;48.112;18.418;2022-12-11T13:51:51;4.00;59.60
24260;DHT22;12384;48.112;18.418;2022-12-11T13:54:20;3.90;59.80
24260;DHT22;12384;48.112;18.418;2022-12-11T13:57:01;3.80;60.10
24260;DHT22;12384;48.112;18.418;2022-12-11T13:59:32;3.70;60.50
24260;DHT22;12384;48.112;18.418;2022-12-11T14:02:08;3.60;60.70
24260;DHT22;12384;48.112;18.418;2022-12-11T14:04:40;3.50;61.00
24260;DHT22;12384;48.112;18.418;2022-12-11T14:07:09;3.40;61.40
24260;DHT22;12384;48.112;18.418;2022-12-11T14:09:42;3.30;62.50
24260;DHT22;12384;48.112;18.418;2022-12-11T14:12:17;3.30;61.90
24260;DHT22;12384;48.112;18.418;2022-12-11T14:14:50;3.20;62.10
24260;DHT22;12384;48.112;18.418;2022-12-11T14:17:28;3.10;62.30
24260;DHT22;12384;48.112;18.418;2022-12-11T14:20:01;3.00;62.50
24260;DHT22;12384;48.112;18.418;2022-12-11T14:22:31;2.90;62.60
24260;DHT22;12384;48.112;18.418;2022-12-11T14:25:01;2.90;62.90
24260;DHT22;12384;48.112;18.418;2022-12-11T14:27:47;2.80;63.10
24260;DHT22;12384;48.112;18.418;2022-12-11T14:30:20;2.70;63.20
24260;DHT22;12384;48.112;18.418;2022-12-11T14:32:50;2.70;63.40
24260;DHT22;12384;48.112;18.418;2022-12-11T14:35:27;2.60;63.50
24260;DHT22;12384;48.112;18.418;2022-12-11T14:38:09;2.50;63.60
24260;DHT22;12384;48.112;18.418;2022-12-11T14:40:42;2.40;63.60
24260;DHT22;12384;48.112;18.418;2022-12-11T14:43:17;2.40;63.70
24260;DHT22;12384;48.112;18.418;2022-12-11T14:45:49;2.30;63.70
24260;DHT22;12384;48.112;18.418;2022-12-11T14:48:25;2.20;63.70
24260;DHT22;12384;48.112;18.418;2022-12-11T14:50:57;2.10;63.80
24260;DHT22;12384;48.112;18.418;2022-12-11T14:53:30;2.10;63.90
24260;DHT22;12384;48.112;18.418;2022-12-11T14:56:02;1.90;63.90
24260;DHT22;12384;48.112;18.418;2022-12-11T14:58:36;1.90;64.10
24260;DHT22;12384;48.112;18.418;2022-12-11T15:01:18;1.80;64.10
24260;DHT22;12384;48.112;18.418;2022-12-11T15:03:48;1.70;64.10
24260;DHT22;12384;48.112;18.418;2022-12-11T15:06:24;1.70;64.30
24260;DHT22;12384;48.112;18.418;2022-12-11T15:08:53;1.60;64.40
24260;DHT22;12384;48.112;18.418;2022-12-11T15:11:23;1.50;64.40
24260;DHT22;12384;48.112;18.418;2022-12-11T15:13:54;1.50;64.50
24260;DHT22;12384;48.112;18.418;2022-12-11T15:16:24;1.40;64.60
24260;DHT22;12384;48.112;18.418;2022-12-11T15:18:54;1.30;64.70
24260;DHT22;12384;48.112;18.418;2022-12-11T15:21:30;1.30;64.90
24260;DHT22;12384;48.112;18.418;2022-12-11T15:24:01;1.20;65.10
24260;DHT22;12384;48.112;18.418;2022-12-11T15:26:34;1.20;65.30
24260;DHT22;12384;48.112;18.418;2022-12-11T15:29:05;1.10;65.60
24260;DHT22;12384;48.112;18.418;2022-12-11T15:31:34;1.10;65.90
24260;DHT22;12384;48.112;18.418;2022-12-11T15:34:02;1.10;66.20
24260;DHT22;12384;48.112;18.418;2022-12-11T15:36:34;1.00;66.50
24260;DHT22;12384;48.112;18.418;2022-12-11T15:39:04;1.00;66.80
24260;DHT22;12384;48.112;18.418;2022-12-11T15:41:34;1.00;67.10
24260;DHT22;12384;48.112;18.418;2022-12-11T15:44:03;1.00;67.50
24260;DHT22;12384;48.112;18.418;2022-12-11T15:46:35;0.90;67.80
24260;DHT22;12384;48.112;18.418;2022-12-11T15:49:09;0.90;68.20
24260;DHT22;12384;48.112;18.418;2022-12-11T15:51:39;1.00;68.60
24260;DHT22;12384;48.112;18.418;2022-12-11T15:54:09;1.00;69.00
24260;DHT22;12384;48.112;18.418;2022-12-11T15:56:38;1.00;69.30
24260;DHT22;12384;48.112;18.418;2022-12-11T15:59:08;1.00;69.60
24260;DHT22;12384;48.112;18.418;2022-12-11T16:01:37;1.10;70.10
24260;DHT22;12384;48.112;18.418;2022-12-11T16:04:05;1.10;70.40
24260;DHT22;12384;48.112;18.418;2022-12-11T16:06:34;1.10;70.70
24260;DHT22;12384;48.112;18.418;2022-12-11T16:09:04;1.10;71.00